sensor_id;sensor_type;location;lat;lon;timestamp;pressure;altitude;pressure_sealevel;temperature;humidity
59951;BME280;45812;53.540;9.774;2023-12-29T00:02:15;100350.31;;;8.37;100.00
59951;BME280;45812;53.540;9.774;2023-12-29T00:04:41;100348.22;;;8.23;100.00
59951;BME280;45812;53.540;9.774;2023-12-29T00:07:07;100346.88;;;8.18;100.00
59951;BME280;45812;53.540;9.774;2023-12-29T00:09:32;100340.44;;;8.21;100.00
59951;BME280;45812;53.540;9.774;2023-12-29T00:12:03;100344.22;;;8.18;100.00
59951;BME280;45812;53.540;9.774;2023-12-29T00:14:29;100335.06;;;8.13;100.00
59951;BME280;45812;53.540;9.774;2023-12-29T00:16:54;100325.13;;;8.15;100.00
59951;BME280;45812;53.540;9.774;2023-12-29T00:19:22;100329.56;;;8.06;100.00
59951;BME280;45812;53.540;9.774;2023-12-29T00:21:47;100326.09;;;8.06;100.00
59951;BME280;45812;53.540;9.774;2023-12-29T00:24:12;100317.47;;;8.04;100.00
59951;BME280;45812;53.540;9.774;2023-12-29T00:26:38;100325.09;;;8.07;100.00
59951;BME280;45812;53.540;9.774;2023-12-29T00:29:03;100336.84;;;8.04;100.00
59951;BME280;45812;53.540;9.774;2023-12-29T00:31:31;100308.53;;;8.05;100.00
59951;BME280;45812;53.540;9.774;2023-12-29T00:33:56;100309.03;;;8.08;100.00
59951;BME280;45812;53.540;9.774;2023-12-29T00:36:21;100313.53;;;8.16;100.00
59951;BME280;45812;53.540;9.774;2023-12-29T00:38:47;100298.16;;;8.19;100.00
59951;BME280;45812;53.540;9.774;2023-12-29T00:41:12;100294.16;;;8.15;100.00
59951;BME280;45812;53.540;9.774;2023-12-29T00:43:37;100292.66;;;8.13;100.00
59951;BME280;45812;53.540;9.774;2023-12-29T00:46:07;100294.31;;;8.14;100.00
59951;BME280;45812;53.540;9.774;2023-12-29T00:48:33;100289.00;;;8.14;100.00
59951;BME280;45812;53.540;9.774;2023-12-29T00:51:01;100282.72;;;8.15;100.00
59951;BME280;45812;53.540;9.774;2023-12-29T00:53:26;100280.72;;;8.17;100.00
59951;BME280;45812;53.540;9.774;2023-12-29T00:55:52;100268.63;;;8.14;100.00
59951;BME280;45812;53.540;9.774;2023-12-29T00:58:17;100284.22;;;8.17;100.00
59951;BME280;45812;53.540;9.774;2023-12-29T01:00:42;100284.09;;;8.19;100.00
59951;BME280;45812;53.540;9.774;2023-12-29T01:03:07;100334.59;;;8.17;100.00
59951;BME280;45812;53.540;9.774;2023-12-29T01:05:33;100281.22;;;8.12;100.00
59951;BME280;45812;53.540;9.774;2023-12-29T01:07:58;100302.94;;;8.16;100.00
59951;BME280;45812;53.540;9.774;2023-12-29T01:10:23;100278.63;;;8.20;100.00
59951;BME280;45812;53.540;9.774;2023-12-29T01:12:48;100298.28;;;8.18;100.00
59951;BME280;45812;53.540;9.774;2023-12-29T01:15:14;100288.19;;;8.13;100.00
59951;BME280;45812;53.540;9.774;2023-12-29T01:17:39;100264.31;;;8.13;100.00
59951;BME280;45812;53.540;9.774;2023-12-29T01:20:05;100274.09;;;8.13;100.00
59951;BME280;45812;53.540;9.774;2023-12-29T01:22:30;100277.25;;;8.16;100.00
59951;BME280;45812;53.540;9.774;2023-12-29T01:24:58;100286.03;;;8.17;100.00
59951;BME280;45812;53.540;9.774;2023-12-29T01:27:24;100297.63;;;8.16;100.00
59951;BME280;45812;53.540;9.774;2023-12-29T01:29:49;100292.50;;;8.14;100.00
59951;BME280;45812;53.540;9.774;2023-12-29T01:32:14;100282.06;;;8.13;100.00
59951;BME280;45812;53.540;9.774;2023-12-29T01:34:39;100298.63;;;8.15;100.00
59951;BME280;45812;53.540;9.774;2023-12-29T01:37:05;100296.28;;;8.12;100.00
59951;BME280;45812;53.540;9.774;2023-12-29T01:39:30;100281.53;;;8.09;100.00
59951;BME280;45812;53.540;9.774;2023-12-29T01:41:56;100255.53;;;8.05;100.00
59951;BME280;45812;53.540;9.774;2023-12-29T01:44:22;100259.00;;;8.05;100.00
59951;BME280;45812;53.540;9.774;2023-12-29T01:46:53;100266.28;;;8.03;100.00
59951;BME280;45812;53.540;9.774;2023-12-29T01:49:19;100255.38;;;8.06;100.00
59951;BME280;45812;53.540;9.774;2023-12-29T01:51:50;100244.91;;;8.05;100.00
59951;BME280;45812;53.540;9.774;2023-12-29T01:54:16;100252.72;;;8.06;100.00
59951;BME280;45812;53.540;9.774;2023-12-29T01:56:43;100245.94;;;8.12;100.00
59951;BME280;45812;53.540;9.774;2023-12-29T01:59:09;100247.59;;;8.13;100.00
59951;BME280;45812;53.540;9.774;2023-12-29T02:01:35;100231.69;;;8.13;100.00
59951;BME280;45812;53.540;9.774;2023-12-29T02:04:01;100243.44;;;8.10;100.00
59951;BME280;45812;53.540;9.774;2023-12-29T02:06:26;100247.59;;;8.13;100.00
59951;BME280;45812;53.540;9.774;2023-12-29T02:08:52;100240.63;;;8.12;100.00
59951;BME280;45812;53.540;9.774;2023-12-29T02:11:17;100221.91;;;8.05;100.00
59951;BME280;45812;53.540;9.774;2023-12-29T02:13:43;100230.34;;;8.09;100.00
59951;BME280;45812;53.540;9.774;2023-12-29T02:16:24;100220.56;;;8.09;100.00
59951;BME280;45812;53.540;9.774;2023-12-29T02:18:51;100231.19;;;8.09;100.00
59951;BME280;45812;53.540;9.774;2023-12-29T02:21:17;100216.78;;;8.12;100.00
59951;BME280;45812;53.540;9.774;2023-12-29T02:23:42;100231.00;;;8.11;100.00
59951;BME280;45812;53.540;9.774;2023-12-29T02:26:10;100224.56;;;8.13;100.00
59951;BME280;45812;53.540;9.774;2023-12-29T02:28:39;100243.28;;;8.12;100.00
59951;BME280;45812;53.540;9.774;2023-12-29T02:31:18;100207.16;;;8.11;100.00
59951;BME280;45812;53.540;9.774;2023-12-29T02:33:45;100204.50;;;8.11;100.00
59951;BME280;45812;53.540;9.774;2023-12-29T02:36:12;100204.00;;;8.07;100.00
59951;BME280;45812;53.540;9.774;2023-12-29T02:38:39;100204.50;;;8.11;100.00
59951;BME280;45812;53.540;9.774;2023-12-29T02:41:04;100198.22;;;8.12;100.00
59951;BME280;45812;53.540;9.774;2023-12-29T02:43:33;100178.34;;;8.16;100.00
59951;BME280;45812;53.540;9.774;2023-12-29T02:45:58;100188.13;;;8.15;100.00
59951;BME280;45812;53.540;9.774;2023-12-29T02:48:23;100188.28;;;8.14;100.00
59951;BME280;45812;53.540;9.774;2023-12-29T02:50:49;100179.50;;;8.13;100.00
59951;BME280;45812;53.540;9.774;2023-12-29T02:53:14;100190.75;;;8.15;100.00
59951;BME280;45812;53.540;9.774;2023-12-29T02:55:39;100172.72;;;8.19;100.00
59951;BME280;45812;53.540;9.774;2023-12-29T02:58:04;100198.88;;;8.14;100.00
59951;BME280;45812;53.540;9.774;2023-12-29T03:00:30;100167.22;;;8.12;100.00
59951;BME280;45812;53.540;9.774;2023-12-29T03:02:55;100185.13;;;8.10;100.00
59951;BME280;45812;53.540;9.774;2023-12-29T03:05:20;100164.91;;;8.09;100.00
59951;BME280;45812;53.540;9.774;2023-12-29T03:07:45;100161.25;;;8.10;100.00
59951;BME280;45812;53.540;9.774;2023-12-29T03:10:11;100163.09;;;8.10;100.00
59951;BME280;45812;53.540;9.774;2023-12-29T03:12:36;100158.78;;;8.17;100.00
59951;BME280;45812;53.540;9.774;2023-12-29T03:15:01;100140.56;;;8.06;100.00
59951;BME280;45812;53.540;9.774;2023-12-29T03:17:27;100151.50;;;8.03;100.00
59951;BME280;45812;53.540;9.774;2023-12-29T03:19:52;100149.00;;;8.01;100.00
59951;BME280;45812;53.540;9.774;2023-12-29T03:22:17;100168.19;;;7.95;100.00
59951;BME280;45812;53.540;9.774;2023-12-29T03:24:43;100166.19;;;7.89;100.00
59951;BME280;45812;53.540;9.774;2023-12-29T03:27:09;100174.13;;;7.81;100.00
59951;BME280;45812;53.540;9.774;2023-12-29T03:29:34;100164.97;;;7.75;100.00
59951;BME280;45812;53.540;9.774;2023-12-29T03:31:59;100155.38;;;7.74;100.00
59951;BME280;45812;53.540;9.774;2023-12-29T03:34:25;100145.94;;;7.80;100.00
59951;BME280;45812;53.540;9.774;2023-12-29T03:36:50;100160.38;;;7.85;100.00
59951;BME280;45812;53.540;9.774;2023-12-29T03:39:15;100140.19;;;7.84;100.00
59951;BME280;45812;53.540;9.774;2023-12-29T03:41:40;100130.03;;;7.80;100.00
59951;BME280;45812;53.540;9.774;2023-12-29T03:44:06;100136.38;;;7.87;100.00
59951;BME280;45812;53.540;9.774;2023-12-29T03:46:31;100138.84;;;7.88;100.00
59951;BME280;45812;53.540;9.774;2023-12-29T03:48:57;100142.84;;;7.93;100.00
59951;BME280;45812;53.540;9.774;2023-12-29T03:51:23;100153.28;;;7.94;100.00
59951;BME280;45812;53.540;9.774;2023-12-29T03:53:48;100171.81;;;7.94;100.00
59951;BME280;45812;53.540;9.774;2023-12-29T03:56:17;100188.03;;;7.91;100.00
59951;BME280;45812;53.540;9.774;2023-12-29T03:58:46;100177.44;;;7.91;100.00
59951;BME280;45812;53.540;9.774;2023-12-29T04:01:12;100253.47;;;7.90;100.00
59951;BME280;45812;53.540;9.774;2023-12-29T04:03:38;100212.03;;;7.81;100.00
59951;BME280;45812;53.540;9.774;2023-12-29T04:06:04;100252.22;;;7.77;100.00
59951;BME280;45812;53.540;9.774;2023-12-29T04:08:29;100238.75;;;7.62;100.00
59951;BME280;45812;53.540;9.774;2023-12-29T04:10:55;100238.28;;;7.41;100.00
59951;BME280;45812;53.540;9.774;2023-12-29T04:13:20;100294.59;;;7.25;100.00
59951;BME280;45812;53.540;9.774;2023-12-29T04:15:45;100303.69;;;6.87;100.00
59951;BME280;45812;53.540;9.774;2023-12-29T04:18:10;100277.94;;;6.53;100.00
59951;BME280;45812;53.540;9.774;2023-12-29T04:20:36;100277.41;;;6.22;100.00
59951;BME280;45812;53.540;9.774;2023-12-29T04:23:01;100229.28;;;6.01;100.00
59951;BME280;45812;53.540;9.774;2023-12-29T04:25:26;100207.59;;;5.97;100.00
59951;BME280;45812;53.540;9.774;2023-12-29T04:27:51;100205.13;;;5.96;100.00
59951;BME280;45812;53.540;9.774;2023-12-29T04:30:17;100175.06;;;5.97;100.00
59951;BME280;45812;53.540;9.774;2023-12-29T04:32:42;100169.38;;;5.92;100.00
59951;BME280;45812;53.540;9.774;2023-12-29T04:35:07;100176.22;;;5.85;100.00
59951;BME280;45812;53.540;9.774;2023-12-29T04:37:35;100198.72;;;5.89;100.00
59951;BME280;45812;53.540;9.774;2023-12-29T04:40:00;100189.13;;;5.88;100.00
59951;BME280;45812;53.540;9.774;2023-12-29T04:42:25;100195.94;;;5.90;100.00
59951;BME280;45812;53.540;9.774;2023-12-29T04:44:50;100229.34;;;5.82;100.00
59951;BME280;45812;53.540;9.774;2023-12-29T04:47:16;100196.16;;;5.69;100.00
59951;BME280;45812;53.540;9.774;2023-12-29T04:49:41;100202.97;;;5.72;100.00
59951;BME280;45812;53.540;9.774;2023-12-29T04:52:07;100223.38;;;5.80;100.00
59951;BME280;45812;53.540;9.774;2023-12-29T04:54:32;100189.19;;;5.78;100.00
59951;BME280;45812;53.540;9.774;2023-12-29T04:56:57;100172.38;;;5.79;100.00
59951;BME280;45812;53.540;9.774;2023-12-29T04:59:22;100174.19;;;5.78;100.00
59951;BME280;45812;53.540;9.774;2023-12-29T05:01:47;100172.91;;;5.83;100.00
59951;BME280;45812;53.540;9.774;2023-12-29T05:04:13;100165.50;;;5.86;100.00
59951;BME280;45812;53.540;9.774;2023-12-29T05:06:40;100168.69;;;5.90;100.00
59951;BME280;45812;53.540;9.774;2023-12-29T05:09:05;100165.91;;;5.91;100.00
59951;BME280;45812;53.540;9.774;2023-12-29T05:11:30;100175.91;;;5.97;100.00
59951;BME280;45812;53.540;9.774;2023-12-29T05:13:55;100165.94;;;6.09;100.00
59951;BME280;45812;53.540;9.774;2023-12-29T05:16:21;100163.97;;;6.11;100.00
59951;BME280;45812;53.540;9.774;2023-12-29T05:18:46;100170.81;;;6.14;100.00
59951;BME280;45812;53.540;9.774;2023-12-29T05:21:18;100163.81;;;6.13;100.00
59951;BME280;45812;53.540;9.774;2023-12-29T05:23:44;100163.16;;;6.11;100.00
59951;BME280;45812;53.540;9.774;2023-12-29T05:26:10;100199.16;;;6.12;100.00
59951;BME280;45812;53.540;9.774;2023-12-29T05:28:35;100181.94;;;6.07;100.00
59951;BME280;45812;53.540;9.774;2023-12-29T05:31:01;100170.53;;;6.07;100.00
59951;BME280;45812;53.540;9.774;2023-12-29T05:33:29;100176.81;;;6.06;100.00
59951;BME280;45812;53.540;9.774;2023-12-29T05:35:54;100178.31;;;6.08;100.00
59951;BME280;45812;53.540;9.774;2023-12-29T05:38:19;100182.03;;;6.16;100.00
59951;BME280;45812;53.540;9.774;2023-12-29T05:40:44;100187.19;;;6.17;100.00
59951;BME280;45812;53.540;9.774;2023-12-29T05:43:10;100200.63;;;6.24;100.00
59951;BME280;45812;53.540;9.774;2023-12-29T05:45:35;100173.72;;;6.28;100.00
59951;BME280;45812;53.540;9.774;2023-12-29T05:48:00;100177.06;;;6.30;100.00
59951;BME280;45812;53.540;9.774;2023-12-29T05:50:25;100180.94;;;6.36;100.00
59951;BME280;45812;53.540;9.774;2023-12-29T05:52:51;100182.28;;;6.40;100.00
59951;BME280;45812;53.540;9.774;2023-12-29T05:55:17;100189.91;;;6.43;100.00
59951;BME280;45812;53.540;9.774;2023-12-29T05:57:42;100168.59;;;6.45;100.00
59951;BME280;45812;53.540;9.774;2023-12-29T06:00:08;100162.84;;;6.49;100.00
59951;BME280;45812;53.540;9.774;2023-12-29T06:02:39;100164.06;;;6.55;100.00
59951;BME280;45812;53.540;9.774;2023-12-29T06:05:04;100178.59;;;6.51;100.00
59951;BME280;45812;53.540;9.774;2023-12-29T06:07:30;100198.88;;;6.50;100.00
59951;BME280;45812;53.540;9.774;2023-12-29T06:09:55;100208.19;;;6.54;100.00
59951;BME280;45812;53.540;9.774;2023-12-29T06:12:20;100189.22;;;6.59;100.00
59951;BME280;45812;53.540;9.774;2023-12-29T06:14:45;100206.59;;;6.61;100.00
59951;BME280;45812;53.540;9.774;2023-12-29T06:17:11;100197.69;;;6.62;100.00
59951;BME280;45812;53.540;9.774;2023-12-29T06:19:36;100191.34;;;6.55;100.00
59951;BME280;45812;53.540;9.774;2023-12-29T06:22:01;100189.84;;;6.53;100.00
59951;BME280;45812;53.540;9.774;2023-12-29T06:24:26;100196.78;;;6.54;100.00
59951;BME280;45812;53.540;9.774;2023-12-29T06:26:52;100185.91;;;6.57;100.00
59951;BME280;45812;53.540;9.774;2023-12-29T06:29:17;100184.78;;;6.59;100.00
59951;BME280;45812;53.540;9.774;2023-12-29T06:31:42;100195.66;;;6.56;100.00
59951;BME280;45812;53.540;9.774;2023-12-29T06:34:08;100188.03;;;6.53;100.00
59951;BME280;45812;53.540;9.774;2023-12-29T06:36:33;100189.00;;;6.52;100.00
59951;BME280;45812;53.540;9.774;2023-12-29T06:38:58;100216.72;;;6.48;100.00
59951;BME280;45812;53.540;9.774;2023-12-29T06:41:23;100221.00;;;6.49;100.00
59951;BME280;45812;53.540;9.774;2023-12-29T06:43:49;100200.56;;;6.51;100.00
59951;BME280;45812;53.540;9.774;2023-12-29T06:46:15;100208.88;;;6.56;100.00
59951;BME280;45812;53.540;9.774;2023-12-29T06:48:40;100223.00;;;6.65;100.00
59951;BME280;45812;53.540;9.774;2023-12-29T06:51:05;100207.94;;;6.65;100.00
59951;BME280;45812;53.540;9.774;2023-12-29T06:53:31;100212.09;;;6.68;100.00
59951;BME280;45812;53.540;9.774;2023-12-29T06:55:56;100224.06;;;6.72;100.00
59951;BME280;45812;53.540;9.774;2023-12-29T06:58:22;100223.06;;;6.73;100.00
59951;BME280;45812;53.540;9.774;2023-12-29T07:00:47;100202.59;;;6.75;100.00
59951;BME280;45812;53.540;9.774;2023-12-29T07:03:13;100206.06;;;6.76;100.00
59951;BME280;45812;53.540;9.774;2023-12-29T07:05:39;100220.66;;;6.80;100.00
59951;BME280;45812;53.540;9.774;2023-12-29T07:08:04;100201.00;;;6.82;100.00
59951;BME280;45812;53.540;9.774;2023-12-29T07:10:30;100230.09;;;6.82;100.00
59951;BME280;45812;53.540;9.774;2023-12-29T07:12:55;100202.19;;;6.88;100.00
59951;BME280;45812;53.540;9.774;2023-12-29T07:15:20;100202.88;;;6.90;100.00
59951;BME280;45812;53.540;9.774;2023-12-29T07:17:47;100213.16;;;6.93;100.00
59951;BME280;45812;53.540;9.774;2023-12-29T07:20:13;100195.34;;;7.03;100.00
59951;BME280;45812;53.540;9.774;2023-12-29T07:22:38;100198.97;;;7.02;100.00
59951;BME280;45812;53.540;9.774;2023-12-29T07:25:03;100205.63;;;7.06;100.00
59951;BME280;45812;53.540;9.774;2023-12-29T07:27:29;100206.31;;;7.08;100.00
59951;BME280;45812;53.540;9.774;2023-12-29T07:29:54;100199.88;;;7.11;100.00
59951;BME280;45812;53.540;9.774;2023-12-29T07:32:19;100198.75;;;7.13;100.00
59951;BME280;45812;53.540;9.774;2023-12-29T07:34:44;100195.78;;;7.16;100.00
59951;BME280;45812;53.540;9.774;2023-12-29T07:37:10;100209.53;;;7.20;100.00
59951;BME280;45812;53.540;9.774;2023-12-29T07:39:38;100204.25;;;7.20;100.00
59951;BME280;45812;53.540;9.774;2023-12-29T07:42:03;100206.06;;;7.19;100.00
59951;BME280;45812;53.540;9.774;2023-12-29T07:44:29;100223.44;;;7.22;100.00
59951;BME280;45812;53.540;9.774;2023-12-29T07:46:57;100214.66;;;7.21;100.00
59951;BME280;45812;53.540;9.774;2023-12-29T07:49:22;100205.47;;;7.25;100.00
59951;BME280;45812;53.540;9.774;2023-12-29T07:51:47;100205.06;;;7.20;100.00
59951;BME280;45812;53.540;9.774;2023-12-29T07:54:12;100207.72;;;7.20;100.00
59951;BME280;45812;53.540;9.774;2023-12-29T07:56:37;100215.19;;;7.25;100.00
59951;BME280;45812;53.540;9.774;2023-12-29T07:59:03;100226.75;;;7.24;100.00
59951;BME280;45812;53.540;9.774;2023-12-29T08:01:29;100208.78;;;7.27;100.00
59951;BME280;45812;53.540;9.774;2023-12-29T08:03:54;100212.75;;;7.32;100.00
59951;BME280;45812;53.540;9.774;2023-12-29T08:06:19;100207.16;;;7.35;100.00
59951;BME280;45812;53.540;9.774;2023-12-29T08:08:44;100212.13;;;7.38;100.00
59951;BME280;45812;53.540;9.774;2023-12-29T08:11:16;100197.56;;;7.34;100.00
59951;BME280;45812;53.540;9.774;2023-12-29T08:13:43;100195.88;;;7.33;100.00
59951;BME280;45812;53.540;9.774;2023-12-29T08:16:08;100200.19;;;7.34;100.00
59951;BME280;45812;53.540;9.774;2023-12-29T08:18:34;100210.78;;;7.34;100.00
59951;BME280;45812;53.540;9.774;2023-12-29T08:20:59;100197.88;;;7.31;100.00
59951;BME280;45812;53.540;9.774;2023-12-29T08:23:25;100212.09;;;7.29;100.00
59951;BME280;45812;53.540;9.774;2023-12-29T08:25:51;100216.41;;;7.31;100.00
59951;BME280;45812;53.540;9.774;2023-12-29T08:28:16;100190.59;;;7.33;100.00
59951;BME280;45812;53.540;9.774;2023-12-29T08:30:42;100203.84;;;7.33;100.00
59951;BME280;45812;53.540;9.774;2023-12-29T08:33:07;100236.28;;;7.35;100.00
59951;BME280;45812;53.540;9.774;2023-12-29T08:35:32;100204.09;;;7.47;100.00
59951;BME280;45812;53.540;9.774;2023-12-29T08:37:57;100198.16;;;7.53;100.00
59951;BME280;45812;53.540;9.774;2023-12-29T08:40:23;100221.34;;;7.59;100.00
59951;BME280;45812;53.540;9.774;2023-12-29T08:42:48;100213.97;;;7.71;100.00
59951;BME280;45812;53.540;9.774;2023-12-29T08:45:13;100229.53;;;7.74;100.00
59951;BME280;45812;53.540;9.774;2023-12-29T08:47:38;100224.72;;;7.70;100.00
59951;BME280;45812;53.540;9.774;2023-12-29T08:50:04;100232.53;;;7.79;100.00
59951;BME280;45812;53.540;9.774;2023-12-29T08:52:29;100232.28;;;7.90;100.00
59951;BME280;45812;53.540;9.774;2023-12-29T08:54:55;100218.69;;;7.94;100.00
59951;BME280;45812;53.540;9.774;2023-12-29T08:57:20;100225.47;;;7.88;100.00
59951;BME280;45812;53.540;9.774;2023-12-29T08:59:45;100251.47;;;7.84;100.00
59951;BME280;45812;53.540;9.774;2023-12-29T09:02:10;100230.06;;;7.44;100.00
59951;BME280;45812;53.540;9.774;2023-12-29T09:04:36;100267.63;;;7.04;100.00
59951;BME280;45812;53.540;9.774;2023-12-29T09:07:01;100233.72;;;6.81;100.00
59951;BME280;45812;53.540;9.774;2023-12-29T09:09:26;100243.09;;;6.76;100.00
59951;BME280;45812;53.540;9.774;2023-12-29T09:11:52;100243.63;;;6.61;100.00
59951;BME280;45812;53.540;9.774;2023-12-29T09:14:17;100241.97;;;6.60;100.00
59951;BME280;45812;53.540;9.774;2023-12-29T09:16:42;100255.94;;;6.71;100.00
59951;BME280;45812;53.540;9.774;2023-12-29T09:19:11;100253.06;;;6.82;100.00
59951;BME280;45812;53.540;9.774;2023-12-29T09:21:36;100240.97;;;6.79;100.00
59951;BME280;45812;53.540;9.774;2023-12-29T09:24:01;100279.44;;;6.74;100.00
59951;BME280;45812;53.540;9.774;2023-12-29T09:26:27;100249.22;;;6.76;100.00
59951;BME280;45812;53.540;9.774;2023-12-29T09:28:52;100267.50;;;6.87;100.00
59951;BME280;45812;53.540;9.774;2023-12-29T09:31:17;100281.13;;;6.92;100.00
59951;BME280;45812;53.540;9.774;2023-12-29T09:33:43;100265.09;;;6.94;100.00
59951;BME280;45812;53.540;9.774;2023-12-29T09:36:08;100277.03;;;6.98;100.00
59951;BME280;45812;53.540;9.774;2023-12-29T09:38:33;100251.09;;;7.02;100.00
59951;BME280;45812;53.540;9.774;2023-12-29T09:41:02;100258.34;;;6.99;100.00
59951;BME280;45812;53.540;9.774;2023-12-29T09:43:31;100265.75;;;6.96;100.00
59951;BME280;45812;53.540;9.774;2023-12-29T09:45:58;100251.19;;;6.92;100.00
59951;BME280;45812;53.540;9.774;2023-12-29T09:48:26;100249.53;;;6.91;100.00
59951;BME280;45812;53.540;9.774;2023-12-29T09:50:51;100251.34;;;6.90;100.00
59951;BME280;45812;53.540;9.774;2023-12-29T09:53:18;100257.63;;;6.89;100.00
59951;BME280;45812;53.540;9.774;2023-12-29T09:55:45;100261.25;;;6.88;100.00
59951;BME280;45812;53.540;9.774;2023-12-29T09:58:12;100251.19;;;6.92;100.00
59951;BME280;45812;53.540;9.774;2023-12-29T10:00:38;100246.88;;;6.91;100.00
59951;BME280;45812;53.540;9.774;2023-12-29T10:03:05;100247.53;;;6.93;100.00
59951;BME280;45812;53.540;9.774;2023-12-29T10:05:31;100236.50;;;6.97;100.00
59951;BME280;45812;53.540;9.774;2023-12-29T10:07:58;100230.75;;;7.02;100.00
59951;BME280;45812;53.540;9.774;2023-12-29T10:10:26;100220.47;;;6.99;100.00
59951;BME280;45812;53.540;9.774;2023-12-29T10:12:51;100233.03;;;6.97;100.00
59951;BME280;45812;53.540;9.774;2023-12-29T10:15:20;100222.97;;;7.01;100.00
59951;BME280;45812;53.540;9.774;2023-12-29T10:18:14;100227.78;;;7.05;100.00
59951;BME280;45812;53.540;9.774;2023-12-29T10:21:02;100228.69;;;7.14;100.00
59951;BME280;45812;53.540;9.774;2023-12-29T10:23:38;100230.50;;;7.13;100.00
59951;BME280;45812;53.540;9.774;2023-12-29T10:26:05;100238.50;;;7.21;100.00
59951;BME280;45812;53.540;9.774;2023-12-29T10:28:32;100251.41;;;7.24;100.00
59951;BME280;45812;53.540;9.774;2023-12-29T10:30:57;100244.38;;;7.33;100.00
59951;BME280;45812;53.540;9.774;2023-12-29T10:33:23;100236.28;;;7.35;100.00
59951;BME280;45812;53.540;9.774;2023-12-29T10:35:57;100243.75;;;7.39;100.00
59951;BME280;45812;53.540;9.774;2023-12-29T10:38:23;100242.09;;;7.38;100.00
59951;BME280;45812;53.540;9.774;2023-12-29T10:40:49;100234.72;;;7.50;100.00
59951;BME280;45812;53.540;9.774;2023-12-29T10:43:21;100242.84;;;7.56;100.00
59951;BME280;45812;53.540;9.774;2023-12-29T10:45:47;100229.69;;;7.65;100.00
59951;BME280;45812;53.540;9.774;2023-12-29T10:48:21;100236.97;;;7.71;100.00
59951;BME280;45812;53.540;9.774;2023-12-29T10:50:46;100233.50;;;7.70;100.00
59951;BME280;45812;53.540;9.774;2023-12-29T10:53:13;100221.44;;;7.76;100.00
59951;BME280;45812;53.540;9.774;2023-12-29T10:55:38;100225.22;;;7.73;100.00
59951;BME280;45812;53.540;9.774;2023-12-29T10:58:05;100224.53;;;7.63;100.00
59951;BME280;45812;53.540;9.774;2023-12-29T11:00:30;100227.63;;;7.58;100.00
59951;BME280;45812;53.540;9.774;2023-12-29T11:02:56;100217.34;;;7.55;100.00
59951;BME280;45812;53.540;9.774;2023-12-29T11:05:25;100219.53;;;7.60;100.00
59951;BME280;45812;53.540;9.774;2023-12-29T11:07:50;100204.00;;;7.65;100.00
59951;BME280;45812;53.540;9.774;2023-12-29T11:10:19;100205.34;;;7.69;100.00
59951;BME280;45812;53.540;9.774;2023-12-29T11:12:45;100200.41;;;7.74;100.00
59951;BME280;45812;53.540;9.774;2023-12-29T11:15:13;100204.75;;;7.83;100.00
59951;BME280;45812;53.540;9.774;2023-12-29T11:17:41;100216.69;;;7.87;100.00
59951;BME280;45812;53.540;9.774;2023-12-29T11:20:12;100218.38;;;7.97;100.00
59951;BME280;45812;53.540;9.774;2023-12-29T11:22:40;100222.06;;;8.04;100.00
59951;BME280;45812;53.540;9.774;2023-12-29T11:25:05;100219.75;;;8.09;100.00
59951;BME280;45812;53.540;9.774;2023-12-29T11:27:32;100228.38;;;8.11;100.00
59951;BME280;45812;53.540;9.774;2023-12-29T11:29:59;100215.09;;;8.03;100.00
59951;BME280;45812;53.540;9.774;2023-12-29T11:32:31;100223.38;;;8.00;100.00
59951;BME280;45812;53.540;9.774;2023-12-29T11:35:10;100234.94;;;7.99;100.00
59951;BME280;45812;53.540;9.774;2023-12-29T11:37:57;100225.81;;;7.93;100.00
59951;BME280;45812;53.540;9.774;2023-12-29T11:40:38;100241.03;;;7.91;100.00
59951;BME280;45812;53.540;9.774;2023-12-29T11:43:09;100214.38;;;7.84;100.00
59951;BME280;45812;53.540;9.774;2023-12-29T11:45:37;100212.16;;;7.80;100.00
59951;BME280;45812;53.540;9.774;2023-12-29T11:48:04;100201.06;;;7.76;100.00
59951;BME280;45812;53.540;9.774;2023-12-29T11:50:37;100209.19;;;7.75;100.00
59951;BME280;45812;53.540;9.774;2023-12-29T11:53:04;100209.19;;;7.75;100.00
59951;BME280;45812;53.540;9.774;2023-12-29T11:55:33;100195.44;;;7.79;100.00
59951;BME280;45812;53.540;9.774;2023-12-29T11:58:00;100190.97;;;7.80;100.00
59951;BME280;45812;53.540;9.774;2023-12-29T12:00:45;100188.03;;;7.83;100.00
59951;BME280;45812;53.540;9.774;2023-12-29T12:03:19;100187.38;;;7.81;100.00
59951;BME280;45812;53.540;9.774;2023-12-29T12:05:49;100194.94;;;7.76;100.00
59951;BME280;45812;53.540;9.774;2023-12-29T12:08:33;100187.88;;;7.84;100.00
59951;BME280;45812;53.540;9.774;2023-12-29T12:13:53;100177.03;;;8.28;100.00
59951;BME280;45812;53.540;9.774;2023-12-29T12:16:49;100185.72;;;8.87;100.00
59951;BME280;45812;53.540;9.774;2023-12-29T12:19:15;100187.97;;;9.39;100.00
59951;BME280;45812;53.540;9.774;2023-12-29T12:21:46;100173.63;;;9.64;100.00
59951;BME280;45812;53.540;9.774;2023-12-29T12:24:18;100184.72;;;9.76;100.00
59951;BME280;45812;53.540;9.774;2023-12-29T12:26:43;100175.56;;;10.10;100.00
59951;BME280;45812;53.540;9.774;2023-12-29T12:29:09;100176.94;;;10.37;100.00
59951;BME280;45812;53.540;9.774;2023-12-29T12:31:34;100185.53;;;10.47;100.00
59951;BME280;45812;53.540;9.774;2023-12-29T12:33:59;100174.94;;;10.61;100.00
59951;BME280;45812;53.540;9.774;2023-12-29T12:36:29;100182.84;;;10.70;98.97
59951;BME280;45812;53.540;9.774;2023-12-29T12:38:56;100168.00;;;10.52;100.00
59951;BME280;45812;53.540;9.774;2023-12-29T12:41:23;100160.44;;;10.64;100.00
59951;BME280;45812;53.540;9.774;2023-12-29T12:44:10;100156.19;;;10.55;99.77
59951;BME280;45812;53.540;9.774;2023-12-29T12:46:40;100157.84;;;10.56;100.00
59951;BME280;45812;53.540;9.774;2023-12-29T12:49:06;100146.19;;;10.80;100.00
59951;BME280;45812;53.540;9.774;2023-12-29T12:51:32;100160.00;;;10.75;98.29